createdAt,value
2018-12-10T00:02:32.425Z,7.20
2018-12-10T00:05:07.564Z,7.30
2018-12-10T00:07:40.050Z,7.30
2018-12-10T00:10:15.696Z,7.40
2018-12-10T00:12:48.573Z,7.10
2018-12-10T00:15:23.482Z,7.20
2018-12-10T00:17:56.443Z,7.30
2018-12-10T00:20:31.940Z,7.50
2018-12-10T00:23:05.331Z,7.10
2018-12-10T00:25:40.523Z,7.20
2018-12-10T00:28:15.799Z,7.30
2018-12-10T00:30:48.896Z,7.40
2018-12-10T00:33:21.989Z,7.30
2018-12-10T00:35:56.708Z,7.20
2018-12-10T00:38:26.030Z,7.30
2018-12-10T00:41:02.131Z,7.20
2018-12-10T00:43:37.266Z,7.20
2018-12-10T00:46:10.222Z,7.20
2018-12-10T00:48:45.547Z,7.10
2018-12-10T00:51:20.864Z,7.20
2018-12-10T00:53:55.724Z,7.30
2018-12-10T00:56:28.756Z,7.00
2018-12-10T00:59:04.304Z,7.20
2018-12-10T01:01:37.447Z,7.20
2018-12-10T01:04:12.209Z,7.20
2018-12-10T01:06:45.010Z,6.90
2018-12-10T01:09:18.229Z,6.90
2018-12-10T01:11:52.889Z,7.00
2018-12-10T01:14:28.304Z,7.00
2018-12-10T01:17:00.586Z,6.70
2018-12-10T01:19:35.765Z,7.00
2018-12-10T01:22:11.392Z,6.60
2018-12-10T01:24:42.176Z,6.70
2018-12-10T01:27:17.077Z,6.80
2018-12-10T01:29:52.669Z,6.90
2018-12-10T01:32:25.744Z,6.90
2018-12-10T01:34:58.513Z,6.70
2018-12-10T01:40:00.927Z,6.90
2018-12-10T01:42:35.595Z,6.90
2018-12-10T01:45:09.235Z,6.90
2018-12-10T01:47:41.963Z,6.80
2018-12-10T01:50:15.199Z,6.80
2018-12-10T01:52:47.581Z,6.90
2018-12-10T01:55:22.576Z,7.00
2018-12-10T01:57:58.313Z,7.10
2018-12-10T02:00:33.210Z,6.90
2018-12-10T02:03:06.095Z,6.70
2018-12-10T02:05:38.752Z,6.90
2018-12-10T02:08:13.733Z,6.90
2018-12-10T02:10:46.522Z,7.10
2018-12-10T02:13:18.965Z,7.10
2018-12-10T02:15:53.959Z,6.90
2018-12-10T02:18:27.011Z,7.00
2018-12-10T02:20:59.366Z,6.80
2018-12-10T02:23:31.982Z,6.70
2018-12-10T02:26:06.802Z,6.80
2018-12-10T02:28:44.953Z,6.80
2018-12-10T02:31:17.441Z,6.90
2018-12-10T02:33:50.232Z,6.80
2018-12-10T02:36:22.807Z,6.80
2018-12-10T02:41:30.196Z,6.70
2018-12-10T02:44:03.483Z,6.90
2018-12-10T02:46:36.503Z,7.00
2018-12-10T02:49:11.452Z,6.80
2018-12-10T02:51:44.288Z,6.80
2018-12-10T02:54:16.725Z,6.90
2018-12-10T02:56:49.147Z,6.80
2018-12-10T02:59:21.534Z,6.80
2018-12-10T03:01:57.131Z,6.80
2018-12-10T03:04:30.055Z,6.50
2018-12-10T03:07:02.554Z,6.70
2018-12-10T03:09:37.572Z,6.80
2018-12-10T03:12:10.498Z,6.80
2018-12-10T03:14:43.765Z,6.70
2018-12-10T03:17:18.848Z,6.70
2018-12-10T03:19:54.086Z,6.80
2018-12-10T03:22:27.054Z,6.50
2018-12-10T03:25:01.982Z,6.50
2018-12-10T03:27:35.042Z,6.60
2018-12-10T03:30:07.875Z,6.60
2018-12-10T03:32:41.329Z,6.70
2018-12-10T03:35:16.767Z,6.60
2018-12-10T03:37:49.547Z,6.60
2018-12-10T03:40:24.304Z,6.40
2018-12-10T03:42:57.292Z,6.60
2018-12-10T03:45:32.206Z,6.50
2018-12-10T03:48:05.426Z,6.30
2018-12-10T03:50:40.229Z,6.60
2018-12-10T03:53:15.913Z,6.70
2018-12-10T03:55:48.883Z,6.50
2018-12-10T03:58:21.363Z,6.40
2018-12-10T04:00:53.802Z,6.40
2018-12-10T04:03:28.754Z,6.50
2018-12-10T04:06:04.486Z,6.30
2018-12-10T04:08:39.809Z,6.50
2018-12-10T04:11:12.579Z,6.30
2018-12-10T04:13:47.599Z,6.50
2018-12-10T04:16:23.047Z,6.50
2018-12-10T04:18:58.304Z,6.60
2018-12-10T04:21:31.484Z,6.40
2018-12-10T04:24:04.719Z,6.40
2018-12-10T04:26:40.350Z,6.50
2018-12-10T04:29:13.456Z,6.30
2018-12-10T04:31:48.346Z,6.30
2018-12-10T04:34:23.525Z,6.30
2018-12-10T04:36:58.873Z,6.40
2018-12-10T04:39:34.291Z,6.20
2018-12-10T04:44:36.229Z,6.50
2018-12-10T04:47:08.581Z,6.50
2018-12-10T04:49:41.244Z,6.50
2018-12-10T04:52:11.808Z,6.50
2018-12-10T04:54:45.616Z,6.50
2018-12-10T04:57:20.694Z,6.70
2018-12-10T04:59:56.483Z,6.60
2018-12-10T05:02:31.851Z,6.60
2018-12-10T05:05:07.131Z,6.70
2018-12-10T05:07:42.352Z,6.70
2018-12-10T05:10:17.962Z,6.70
2018-12-10T05:12:53.306Z,6.40
2018-12-10T05:15:29.612Z,6.30
2018-12-10T05:18:02.537Z,6.50
2018-12-10T05:20:35.675Z,6.60
2018-12-10T05:23:08.160Z,6.50
2018-12-10T05:25:40.549Z,6.60
2018-12-10T05:28:13.309Z,6.40
2018-12-10T05:30:48.122Z,6.30
2018-12-10T05:33:23.074Z,6.40
2018-12-10T05:35:58.079Z,6.40
2018-12-10T05:38:33.519Z,6.50
2018-12-10T05:41:06.629Z,6.40
2018-12-10T05:43:39.840Z,6.30
2018-12-10T05:46:16.671Z,6.30
2018-12-10T05:48:51.844Z,6.40
2018-12-10T05:51:25.125Z,6.40
2018-12-10T05:54:00.011Z,6.60
2018-12-10T05:56:32.924Z,6.50
2018-12-10T05:59:08.459Z,6.40
2018-12-10T06:01:41.593Z,6.40
2018-12-10T06:04:14.237Z,6.30
2018-12-10T06:06:46.945Z,6.10
2018-12-10T06:09:19.599Z,6.10
2018-12-10T06:11:52.361Z,6.20
2018-12-10T06:14:27.535Z,6.20
2018-12-10T06:17:04.174Z,6.20
2018-12-10T06:19:36.937Z,6.40
2018-12-10T06:22:09.578Z,6.20
2018-12-10T06:24:44.710Z,6.40
2018-12-10T06:27:20.115Z,6.50
2018-12-10T06:29:55.701Z,6.50
2018-12-10T06:32:28.750Z,6.40
2018-12-10T06:35:01.378Z,6.20
2018-12-10T06:37:37.546Z,6.30
2018-12-10T06:40:08.828Z,6.20
2018-12-10T06:42:39.234Z,6.10
2018-12-10T06:45:17.638Z,6.20
2018-12-10T06:47:50.421Z,6.30
2018-12-10T06:50:25.278Z,6.30
2018-12-10T06:52:58.404Z,6.20
2018-12-10T06:55:37.720Z,6.10
2018-12-10T06:58:10.379Z,6.20
2018-12-10T07:00:45.374Z,6.10
2018-12-10T07:03:18.591Z,6.00
2018-12-10T07:05:51.689Z,6.10
2018-12-10T07:08:26.939Z,6.20
2018-12-10T07:11:02.683Z,6.20
2018-12-10T07:13:38.140Z,5.90
2018-12-10T07:16:12.059Z,6.10
2018-12-10T07:18:42.756Z,6.30
2018-12-10T07:21:17.573Z,6.20
2018-12-10T07:23:50.761Z,6.20
2018-12-10T07:26:26.205Z,6.30
2018-12-10T07:29:01.749Z,6.20
2018-12-10T07:31:48.016Z,6.40
2018-12-10T07:34:23.309Z,6.30
2018-12-10T07:36:58.794Z,6.40
2018-12-10T07:39:34.401Z,6.50
2018-12-10T07:42:09.687Z,6.30
2018-12-10T07:44:40.722Z,6.50
2018-12-10T07:49:39.124Z,6.20
2018-12-10T07:52:08.410Z,6.50
2018-12-10T07:54:37.678Z,6.20
2018-12-10T07:57:06.947Z,6.40
2018-12-10T07:59:36.175Z,6.60
2018-12-10T08:02:05.498Z,6.10
2018-12-10T08:04:34.812Z,6.40
2018-12-10T08:07:04.209Z,6.50
2018-12-10T08:09:35.798Z,6.50
2018-12-10T08:12:05.203Z,6.30
2018-12-10T08:14:34.582Z,6.20
2018-12-10T08:17:04.115Z,6.00
2018-12-10T08:19:33.439Z,6.30
2018-12-10T08:22:02.778Z,6.60
2018-12-10T08:24:32.043Z,6.70
2018-12-10T08:27:01.347Z,6.60
2018-12-10T08:29:30.659Z,6.60
2018-12-10T08:32:00.069Z,6.60
2018-12-10T08:34:29.490Z,6.40
2018-12-10T08:36:58.779Z,6.40
2018-12-10T08:39:28.048Z,6.60
2018-12-10T08:41:57.416Z,6.50
2018-12-10T08:44:26.674Z,6.40
2018-12-10T08:46:55.979Z,6.20
2018-12-10T08:49:25.305Z,6.30
2018-12-10T08:51:54.620Z,6.40
2018-12-10T08:54:23.894Z,6.60
2018-12-10T08:56:53.215Z,6.50
2018-12-10T08:59:23.576Z,6.60
2018-12-10T09:01:52.891Z,6.70
2018-12-10T09:04:22.145Z,6.90
2018-12-10T09:06:51.546Z,6.70
2018-12-10T09:09:20.844Z,6.90
2018-12-10T09:11:50.127Z,7.00
2018-12-10T09:14:19.435Z,6.90
2018-12-10T09:16:48.711Z,6.90
2018-12-10T09:19:18.028Z,6.80
2018-12-10T09:21:47.251Z,6.70
2018-12-10T09:24:16.524Z,7.00
2018-12-10T09:26:46.004Z,7.00
2018-12-10T09:29:15.270Z,7.00
2018-12-10T09:31:44.472Z,7.10
2018-12-10T09:34:13.756Z,7.00
2018-12-10T09:36:42.992Z,6.70
2018-12-10T09:39:12.359Z,6.90
2018-12-10T09:41:42.672Z,6.90
2018-12-10T09:44:11.930Z,7.00
2018-12-10T09:46:41.212Z,6.80
2018-12-10T09:49:10.428Z,7.10
2018-12-10T09:51:39.719Z,7.00
2018-12-10T09:54:09.119Z,7.20
2018-12-10T09:56:38.466Z,7.00
2018-12-10T09:59:07.780Z,6.70
2018-12-10T10:01:37.057Z,7.20
2018-12-10T10:04:06.370Z,7.20
2018-12-10T10:06:35.874Z,7.20
2018-12-10T10:09:07.486Z,7.10
2018-12-10T10:11:36.876Z,7.10
2018-12-10T10:14:06.144Z,7.30
2018-12-10T10:16:36.508Z,7.20
2018-12-10T10:19:05.726Z,7.20
2018-12-10T10:21:34.959Z,7.20
2018-12-10T10:24:04.416Z,7.40
2018-12-10T10:26:33.677Z,7.40
2018-12-10T10:29:02.984Z,7.30
2018-12-10T10:31:32.263Z,7.30
2018-12-10T10:34:01.546Z,7.50
2018-12-10T10:36:30.971Z,7.30
2018-12-10T10:39:00.327Z,7.50
2018-12-10T10:41:31.442Z,7.80
2018-12-10T10:44:02.014Z,7.20
2018-12-10T10:46:31.401Z,7.40
2018-12-10T10:49:00.776Z,7.40
2018-12-10T10:51:30.106Z,7.00
2018-12-10T10:53:59.444Z,7.30
2018-12-10T10:56:28.724Z,7.60
2018-12-10T10:58:58.020Z,7.60
2018-12-10T11:01:32.604Z,7.60
2018-12-10T11:04:03.942Z,7.80
2018-12-10T11:06:33.295Z,7.50
2018-12-10T11:09:02.583Z,7.80
2018-12-10T11:11:31.927Z,7.80
2018-12-10T11:14:01.192Z,8.00
2018-12-10T11:16:30.575Z,7.90
2018-12-10T11:18:59.832Z,7.70
2018-12-10T11:21:29.332Z,7.80
2018-12-10T11:23:58.576Z,7.90
2018-12-10T11:26:27.821Z,7.80
2018-12-10T11:28:57.088Z,7.80
2018-12-10T11:31:26.363Z,7.50
2018-12-10T11:33:56.133Z,7.80
2018-12-10T11:36:25.621Z,7.90
2018-12-10T11:38:58.101Z,8.00
2018-12-10T11:41:27.532Z,8.50
2018-12-10T11:43:56.815Z,8.30
2018-12-10T11:46:26.075Z,8.60
2018-12-10T11:48:55.335Z,8.30
2018-12-10T11:51:24.704Z,8.10
2018-12-10T11:53:54.057Z,8.00
2018-12-10T11:56:23.512Z,7.50
2018-12-10T11:58:52.820Z,7.40
2018-12-10T12:01:22.046Z,7.50
2018-12-10T12:03:51.309Z,7.20
2018-12-10T12:06:20.577Z,6.60
2018-12-10T12:08:49.851Z,6.60
2018-12-10T12:11:19.157Z,6.20
2018-12-10T12:13:48.461Z,5.90
2018-12-10T12:16:17.723Z,5.60
2018-12-10T12:18:47.024Z,5.60
2018-12-10T12:21:16.497Z,5.60
2018-12-10T12:23:45.802Z,5.60
2018-12-10T12:26:15.126Z,5.70
2018-12-10T12:28:44.398Z,5.60
2018-12-10T12:31:13.664Z,5.60
2018-12-10T12:33:42.988Z,5.60
2018-12-10T12:36:12.390Z,5.70
2018-12-10T12:38:41.698Z,5.80
2018-12-10T12:41:10.922Z,6.00
2018-12-10T12:43:40.205Z,6.10
2018-12-10T12:46:09.492Z,6.10
2018-12-10T12:48:38.780Z,6.40
2018-12-10T12:51:08.059Z,6.40
2018-12-10T12:53:37.323Z,6.60
2018-12-10T12:56:06.626Z,6.90
2018-12-10T12:58:35.895Z,7.10
2018-12-10T13:01:05.299Z,7.30
2018-12-10T13:03:34.665Z,7.20
2018-12-10T13:06:06.964Z,7.00
2018-12-10T13:08:35.607Z,7.10
2018-12-10T13:11:05.010Z,7.10
2018-12-10T13:13:34.405Z,6.90
2018-12-10T13:16:03.685Z,7.00
2018-12-10T13:18:32.963Z,7.00
2018-12-10T13:21:02.207Z,6.80
2018-12-10T13:23:31.510Z,7.00
2018-12-10T13:26:00.983Z,6.70
2018-12-10T13:28:30.344Z,6.60
2018-12-10T13:30:59.779Z,6.80
2018-12-10T13:33:29.041Z,7.20
2018-12-10T13:35:58.511Z,7.20
2018-12-10T13:38:27.805Z,7.10
2018-12-10T13:40:57.056Z,6.90
2018-12-10T13:43:26.304Z,6.80
2018-12-10T13:45:55.568Z,7.10
2018-12-10T13:48:24.956Z,7.00
2018-12-10T13:50:54.160Z,6.90
2018-12-10T13:53:23.541Z,6.90
2018-12-10T13:55:52.835Z,7.00
2018-12-10T13:58:23.210Z,6.90
2018-12-10T14:00:52.479Z,6.90
2018-12-10T14:03:21.742Z,6.80
2018-12-10T14:05:51.014Z,6.80
2018-12-10T14:08:20.339Z,6.70
2018-12-10T14:10:49.687Z,7.00
2018-12-10T14:13:18.987Z,6.80
2018-12-10T14:15:48.306Z,6.90
2018-12-10T14:18:17.790Z,7.00
2018-12-10T14:20:47.151Z,7.10
2018-12-10T14:23:16.434Z,7.00
2018-12-10T14:25:45.689Z,6.80
2018-12-10T14:28:15.116Z,7.00
2018-12-10T14:30:44.617Z,7.00
2018-12-10T14:33:13.968Z,7.00
2018-12-10T14:35:44.535Z,7.20
2018-12-10T14:38:13.859Z,7.10
2018-12-10T14:40:43.098Z,7.20
2018-12-10T14:43:12.357Z,7.10
2018-12-10T14:45:41.694Z,6.90
2018-12-10T14:48:10.969Z,7.20
2018-12-10T14:50:40.360Z,7.10
2018-12-10T14:53:09.763Z,7.50
2018-12-10T14:55:39.043Z,7.20
2018-12-10T14:58:08.367Z,7.10
2018-12-10T15:00:37.697Z,7.10
2018-12-10T15:03:07.087Z,7.00
2018-12-10T15:05:36.482Z,7.00
2018-12-10T15:08:05.730Z,6.90
2018-12-10T15:10:35.026Z,6.80
2018-12-10T15:13:14.014Z,6.70
2018-12-10T15:15:43.442Z,6.80
2018-12-10T15:18:12.874Z,6.60
2018-12-10T15:20:42.407Z,6.60
2018-12-10T15:23:11.719Z,6.60
2018-12-10T15:25:41.005Z,7.00
2018-12-10T15:28:10.439Z,6.80
2018-12-10T15:30:39.756Z,6.90
2018-12-10T15:33:09.103Z,6.90
2018-12-10T15:35:38.406Z,6.90
2018-12-10T15:38:07.731Z,6.80
2018-12-10T15:40:37.017Z,6.90
2018-12-10T15:43:06.299Z,7.00
2018-12-10T15:45:35.595Z,7.00
2018-12-10T15:48:09.067Z,6.80
2018-12-10T15:50:38.301Z,6.80
2018-12-10T15:53:07.831Z,6.70
2018-12-10T15:55:37.210Z,7.00
2018-12-10T15:58:06.722Z,6.80
2018-12-10T16:00:36.228Z,6.90
2018-12-10T16:03:05.729Z,6.90
2018-12-10T16:05:34.970Z,6.80
2018-12-10T16:08:04.295Z,6.70
2018-12-10T16:10:33.571Z,6.80
2018-12-10T16:16:06.106Z,6.70
2018-12-10T16:18:35.509Z,6.70
2018-12-10T16:21:04.756Z,6.80
2018-12-10T16:23:33.988Z,6.70
2018-12-10T16:26:03.246Z,6.80
2018-12-10T16:28:32.555Z,6.50
2018-12-10T16:31:01.966Z,6.60
2018-12-10T16:33:31.218Z,6.60
2018-12-10T16:36:00.813Z,6.60
2018-12-10T16:38:30.167Z,6.70
2018-12-10T16:40:59.399Z,6.40
2018-12-10T16:43:34.849Z,6.50
2018-12-10T16:46:26.355Z,6.50
2018-12-10T16:49:03.178Z,6.40
2018-12-10T16:51:38.192Z,6.40
2018-12-10T16:54:07.494Z,6.60
2018-12-10T16:56:42.584Z,6.20
2018-12-10T16:59:18.170Z,6.40
2018-12-10T17:01:53.931Z,6.30
2018-12-10T17:04:26.878Z,6.60
2018-12-10T17:07:02.040Z,6.60
2018-12-10T17:09:36.243Z,6.40
2018-12-10T17:12:07.388Z,6.60
2018-12-10T17:14:40.658Z,6.50
2018-12-10T17:17:15.508Z,6.50
2018-12-10T17:19:46.886Z,6.60
2018-12-10T17:22:20.073Z,6.60
2018-12-10T17:24:52.530Z,6.60
2018-12-10T17:27:27.360Z,6.50
2018-12-10T17:30:00.476Z,6.60
2018-12-10T17:32:35.825Z,6.80
2018-12-10T17:35:10.290Z,6.50
2018-12-10T17:37:42.768Z,6.50
2018-12-10T17:46:18.394Z,6.50
2018-12-10T17:48:47.701Z,6.50
2018-12-10T17:51:17.076Z,6.50
2018-12-10T17:53:48.247Z,6.60
2018-12-10T17:56:17.646Z,6.30
2018-12-10T17:58:47.171Z,6.30
2018-12-10T18:01:16.406Z,6.50
2018-12-10T18:03:56.877Z,6.60
2018-12-10T18:06:30.165Z,6.50
2018-12-10T18:08:59.501Z,6.40
2018-12-10T18:11:35.321Z,6.40
2018-12-10T18:14:15.100Z,6.60
2018-12-10T18:16:47.344Z,6.40
2018-12-10T18:19:16.592Z,6.30
2018-12-10T18:21:45.911Z,6.60
2018-12-10T18:24:15.263Z,6.60
2018-12-10T18:26:45.010Z,6.60
2018-12-10T18:29:20.299Z,6.60
2018-12-10T18:31:50.435Z,6.60
2018-12-10T18:34:20.905Z,6.70
2018-12-10T18:39:55.157Z,6.60
2018-12-10T18:42:53.949Z,6.50
2018-12-10T18:45:23.272Z,6.60
2018-12-10T18:47:52.614Z,6.40
2018-12-10T18:50:22.004Z,6.60
2018-12-10T18:52:51.294Z,6.60
2018-12-10T18:55:21.622Z,6.30
2018-12-10T18:57:51.046Z,6.50
2018-12-10T19:00:27.450Z,6.60
2018-12-10T19:02:56.748Z,6.50
2018-12-10T19:05:40.449Z,6.60
2018-12-10T19:08:09.800Z,6.40
2018-12-10T19:10:42.159Z,6.50
2018-12-10T19:13:30.155Z,6.40
2018-12-10T19:16:02.865Z,6.40
2018-12-10T19:18:48.135Z,6.60
2018-12-10T19:21:21.129Z,6.40
2018-12-10T19:23:56.425Z,6.50
2018-12-10T19:32:35.188Z,6.50
2018-12-10T19:38:09.135Z,6.50
2018-12-10T19:40:54.974Z,6.40
2018-12-10T19:43:50.088Z,6.40
2018-12-10T19:52:40.400Z,6.40
2018-12-10T19:55:19.569Z,6.50
2018-12-10T19:57:48.994Z,6.40
2018-12-10T20:00:18.639Z,6.40
2018-12-10T20:02:47.986Z,6.40
2018-12-10T20:05:17.506Z,6.10
2018-12-10T20:07:52.392Z,6.20
2018-12-10T20:10:21.685Z,6.30
2018-12-10T20:12:51.216Z,6.40
2018-12-10T20:15:20.771Z,6.20
2018-12-10T20:17:50.090Z,6.30
2018-12-10T20:26:28.096Z,6.20
2018-12-10T20:28:59.012Z,6.40
2018-12-10T20:31:28.312Z,6.50
2018-12-10T20:33:57.786Z,6.70
2018-12-10T20:36:27.321Z,6.80
2018-12-10T20:38:57.380Z,6.70
2018-12-10T20:41:27.073Z,6.60
2018-12-10T20:43:56.408Z,6.40
2018-12-10T20:46:26.186Z,6.50
2018-12-10T20:48:55.477Z,6.50
2018-12-10T20:54:37.853Z,6.70
2018-12-10T20:57:15.372Z,6.20
2018-12-10T20:59:55.107Z,6.50
2018-12-10T21:02:42.931Z,6.60
2018-12-10T21:05:12.525Z,6.60
2018-12-10T21:07:49.576Z,6.50
2018-12-10T21:10:35.509Z,6.60
2018-12-10T21:13:16.874Z,6.60
2018-12-10T21:15:46.354Z,6.50
2018-12-10T21:21:20.665Z,6.50
2018-12-10T21:23:49.922Z,6.50
2018-12-10T21:26:20.247Z,6.50
2018-12-10T21:28:49.651Z,6.40
2018-12-10T21:31:18.925Z,6.40
2018-12-10T21:33:48.196Z,6.30
2018-12-10T21:36:21.536Z,6.40
2018-12-10T21:38:50.899Z,6.30
2018-12-10T21:41:20.219Z,6.30
2018-12-10T21:43:49.584Z,6.20
2018-12-10T21:46:18.831Z,6.20
2018-12-10T21:48:48.091Z,6.30
2018-12-10T21:51:17.356Z,6.30
2018-12-10T21:53:47.068Z,6.30
2018-12-10T21:56:16.354Z,6.20
2018-12-10T21:58:45.645Z,6.20
2018-12-10T22:01:15.016Z,6.00
2018-12-10T22:03:50.663Z,6.00
2018-12-10T22:06:20.062Z,6.10
2018-12-10T22:08:49.523Z,6.20
2018-12-10T22:11:18.787Z,6.10
2018-12-10T22:13:49.156Z,6.30
2018-12-10T22:16:18.416Z,6.00
2018-12-10T22:18:48.183Z,6.20
2018-12-10T22:21:17.964Z,6.10
2018-12-10T22:23:47.441Z,6.10
2018-12-10T22:26:16.878Z,6.30
2018-12-10T22:28:46.317Z,6.10
2018-12-10T22:31:16.268Z,6.00
2018-12-10T22:33:45.842Z,6.00
2018-12-10T22:36:15.402Z,6.20
2018-12-10T22:38:44.990Z,6.30
2018-12-10T22:41:14.595Z,6.10
2018-12-10T22:43:43.994Z,6.30
2018-12-10T22:46:13.367Z,6.20
2018-12-10T22:48:42.688Z,6.10
2018-12-10T22:51:12.445Z,5.90
2018-12-10T22:53:41.777Z,6.10
2018-12-10T22:56:11.076Z,6.20
2018-12-10T22:58:40.448Z,6.20
2018-12-10T23:01:10.129Z,6.00
2018-12-10T23:03:39.919Z,6.10
2018-12-10T23:06:09.581Z,6.10
2018-12-10T23:08:38.895Z,5.90
2018-12-10T23:11:08.172Z,5.90
2018-12-10T23:13:37.558Z,5.90
2018-12-10T23:16:07.011Z,6.00
2018-12-10T23:18:36.288Z,5.90
2018-12-10T23:21:05.546Z,6.10
2018-12-10T23:23:34.811Z,6.10
2018-12-10T23:26:04.147Z,6.00
2018-12-10T23:28:33.399Z,6.10
2018-12-10T23:31:02.738Z,6.10
2018-12-10T23:33:32.000Z,6.00
2018-12-10T23:36:03.414Z,6.10
2018-12-10T23:38:32.659Z,6.10
2018-12-10T23:41:01.970Z,6.10
2018-12-10T23:43:31.431Z,6.10
2018-12-10T23:46:00.793Z,5.90
2018-12-10T23:48:31.183Z,5.90
2018-12-10T23:51:00.628Z,6.00
2018-12-10T23:53:29.960Z,6.00
2018-12-10T23:55:59.486Z,6.00
2018-12-10T23:58:28.772Z,6.10
